createdAt,value
2017-12-04T00:01:19.747Z,36.10
2017-12-04T00:03:47.294Z,30.17
2017-12-04T00:06:15.620Z,36.28
2017-12-04T00:08:43.124Z,37.92
2017-12-04T00:11:11.396Z,37.95
2017-12-04T00:13:39.669Z,36.95
2017-12-04T00:16:07.194Z,40.28
2017-12-04T00:18:34.722Z,36.80
2017-12-04T00:21:02.279Z,40.35
2017-12-04T00:23:29.788Z,35.95
2017-12-04T00:25:58.814Z,40.28
2017-12-04T00:28:27.125Z,39.25
2017-12-04T00:30:54.628Z,39.67
2017-12-04T00:33:22.935Z,41.25
2017-12-04T00:35:50.455Z,43.47
2017-12-04T00:38:17.964Z,38.78
2017-12-04T00:40:45.496Z,38.50
2017-12-04T00:43:13.786Z,43.05
2017-12-04T00:45:41.343Z,42.62
2017-12-04T00:48:08.851Z,40.97
2017-12-04T00:50:36.379Z,41.88
2017-12-04T00:53:03.924Z,40.15
2017-12-04T00:55:31.451Z,38.92
2017-12-04T00:57:58.985Z,39.15
2017-12-04T01:00:26.515Z,38.13
2017-12-04T01:02:54.042Z,33.05
2017-12-04T01:05:22.328Z,24.80
2017-12-04T01:07:49.854Z,36.25
2017-12-04T01:10:17.405Z,35.47
2017-12-04T01:12:44.921Z,37.95
2017-12-04T01:15:12.452Z,44.50
2017-12-04T01:17:40.724Z,43.87
2017-12-04T01:20:09.027Z,43.10
2017-12-04T01:22:36.547Z,42.10
2017-12-04T01:25:04.853Z,43.15
2017-12-04T01:27:32.375Z,45.40
2017-12-04T01:29:59.898Z,44.00
2017-12-04T01:32:27.514Z,43.83
2017-12-04T01:34:55.783Z,45.95
2017-12-04T01:37:24.076Z,48.42
2017-12-04T01:39:51.607Z,46.40
2017-12-04T01:42:19.150Z,41.03
2017-12-04T01:44:46.656Z,40.55
2017-12-04T01:47:14.179Z,42.90
2017-12-04T01:49:41.704Z,38.17
2017-12-04T01:52:09.227Z,42.90
2017-12-04T01:54:36.761Z,37.85
2017-12-04T01:57:04.272Z,42.40
2017-12-04T01:59:31.799Z,41.03
2017-12-04T02:01:59.350Z,41.53
2017-12-04T02:04:27.623Z,43.78
2017-12-04T02:06:55.931Z,40.70
2017-12-04T02:09:23.440Z,44.28
2017-12-04T02:11:50.965Z,42.92
2017-12-04T02:14:18.481Z,40.53
2017-12-04T02:16:46.776Z,46.37
2017-12-04T02:19:14.287Z,43.42
2017-12-04T02:21:41.834Z,50.45
2017-12-04T02:24:09.348Z,49.22
2017-12-04T02:26:36.853Z,50.00
2017-12-04T02:29:04.411Z,45.65
2017-12-04T02:31:31.938Z,48.55
2017-12-04T02:33:59.464Z,47.78
2017-12-04T02:36:27.736Z,50.10
2017-12-04T02:38:56.037Z,46.05
2017-12-04T02:41:23.556Z,46.00
2017-12-04T02:43:51.064Z,45.60
2017-12-04T02:46:18.623Z,44.45
2017-12-04T02:48:46.143Z,45.78
2017-12-04T02:51:14.416Z,48.30
2017-12-04T02:53:42.728Z,48.05
2017-12-04T02:56:10.258Z,46.08
2017-12-04T02:58:38.544Z,49.85
2017-12-04T03:01:06.055Z,47.35
2017-12-04T03:03:33.602Z,44.88
2017-12-04T03:06:01.116Z,48.08
2017-12-04T03:08:28.639Z,47.35
2017-12-04T03:10:56.166Z,42.83
2017-12-04T03:13:23.663Z,47.45
2017-12-04T03:15:51.196Z,44.30
2017-12-04T03:18:18.714Z,42.50
2017-12-04T03:20:46.243Z,47.65
2017-12-04T03:23:13.769Z,45.35
2017-12-04T03:25:41.293Z,47.53
2017-12-04T03:28:08.845Z,46.37
2017-12-04T03:30:36.396Z,44.97
2017-12-04T03:33:03.947Z,52.92
2017-12-04T03:35:32.244Z,51.60
2017-12-04T03:37:59.766Z,52.70
2017-12-04T03:40:27.338Z,53.33
2017-12-04T03:42:55.631Z,48.60
2017-12-04T03:45:23.160Z,55.15
2017-12-04T03:47:50.695Z,48.67
2017-12-04T03:50:18.218Z,50.85
2017-12-04T03:52:45.754Z,53.25
2017-12-04T03:55:14.043Z,52.10
2017-12-04T03:57:41.592Z,52.20
2017-12-04T04:00:09.864Z,49.40
2017-12-04T04:02:38.159Z,52.45
2017-12-04T04:05:05.684Z,48.55
2017-12-04T04:07:33.201Z,48.10
2017-12-04T04:10:00.726Z,49.80
2017-12-04T04:12:28.244Z,56.22
2017-12-04T04:14:55.776Z,46.25
2017-12-04T04:17:23.285Z,51.40
2017-12-04T04:19:51.578Z,52.13
2017-12-04T04:22:19.104Z,49.13
2017-12-04T04:24:46.631Z,49.75
2017-12-04T04:27:14.178Z,49.58
2017-12-04T04:29:41.703Z,48.75
2017-12-04T04:32:09.980Z,46.85
2017-12-04T04:34:38.290Z,45.58
2017-12-04T04:37:05.797Z,48.25
2017-12-04T04:39:33.332Z,40.97
2017-12-04T04:42:00.854Z,44.13
2017-12-04T04:44:28.383Z,48.58
2017-12-04T04:46:56.667Z,47.15
2017-12-04T04:49:24.955Z,44.67
2017-12-04T04:51:52.506Z,47.28
2017-12-04T04:54:20.787Z,48.13
2017-12-04T04:56:48.323Z,46.33
2017-12-04T04:59:16.634Z,45.83
2017-12-04T05:01:44.149Z,43.92
2017-12-04T05:04:11.675Z,50.17
2017-12-04T05:06:39.198Z,47.62
2017-12-04T05:09:06.709Z,43.17
2017-12-04T05:11:34.264Z,44.50
2017-12-04T05:14:01.768Z,49.00
2017-12-04T05:16:29.319Z,46.17
2017-12-04T05:18:57.596Z,48.00
2017-12-04T05:21:25.120Z,46.53
2017-12-04T05:23:52.645Z,49.28
2017-12-04T05:26:20.167Z,49.58
2017-12-04T05:28:48.603Z,49.03
2017-12-04T05:31:16.127Z,48.30
2017-12-04T05:33:43.670Z,54.28
2017-12-04T05:36:11.959Z,46.88
2017-12-04T05:38:39.567Z,48.63
2017-12-04T05:41:07.106Z,47.50
2017-12-04T05:43:34.631Z,50.75
2017-12-04T05:46:02.171Z,50.22
2017-12-04T05:48:30.458Z,49.28
2017-12-04T05:50:58.835Z,45.97
2017-12-04T05:53:26.326Z,51.63
2017-12-04T05:55:53.833Z,49.30
2017-12-04T05:58:22.164Z,47.35
2017-12-04T06:00:49.695Z,48.70
2017-12-04T06:03:17.228Z,48.50
2017-12-04T06:05:45.522Z,48.17
2017-12-04T06:08:13.792Z,50.35
2017-12-04T06:10:42.095Z,50.17
2017-12-04T06:13:09.614Z,42.83
2017-12-04T06:15:37.141Z,45.92
2017-12-04T06:18:04.662Z,48.78
2017-12-04T06:20:32.205Z,48.08
2017-12-04T06:23:00.490Z,46.15
2017-12-04T06:25:27.997Z,48.65
2017-12-04T06:27:55.529Z,47.13
2017-12-04T06:30:23.032Z,46.88
2017-12-04T06:32:50.575Z,49.15
2017-12-04T06:35:18.103Z,43.70
2017-12-04T06:37:45.646Z,45.12
2017-12-04T06:40:13.161Z,49.47
2017-12-04T06:42:40.712Z,47.90
2017-12-04T06:45:08.245Z,50.35
2017-12-04T06:47:35.779Z,49.90
2017-12-04T06:50:03.328Z,50.33
2017-12-04T06:52:31.618Z,46.10
2017-12-04T06:54:59.172Z,51.42
2017-12-04T06:57:26.676Z,49.80
2017-12-04T06:59:54.202Z,48.40
2017-12-04T07:02:21.747Z,49.30
2017-12-04T07:04:49.364Z,44.88
2017-12-04T07:07:17.670Z,46.95
2017-12-04T07:09:45.954Z,46.95
2017-12-04T07:12:14.242Z,44.17
2017-12-04T07:14:41.767Z,45.80
2017-12-04T07:17:10.068Z,47.80
2017-12-04T07:19:38.340Z,46.13
2017-12-04T07:22:06.689Z,46.90
2017-12-04T07:24:34.216Z,45.58
2017-12-04T07:27:01.725Z,43.38
2017-12-04T07:29:30.044Z,40.90
2017-12-04T07:31:57.547Z,46.35
2017-12-04T07:34:25.075Z,45.20
2017-12-04T07:36:52.623Z,42.55
2017-12-04T07:39:20.124Z,38.25
2017-12-04T07:41:47.683Z,39.20
2017-12-04T07:44:15.193Z,40.75
2017-12-04T07:46:42.723Z,40.45
2017-12-04T07:49:11.016Z,45.00
2017-12-04T07:51:38.524Z,39.85
2017-12-04T07:54:06.074Z,42.20
2017-12-04T07:56:33.589Z,40.83
2017-12-04T07:59:01.111Z,40.92
2017-12-04T08:01:28.636Z,42.45
2017-12-04T08:03:56.163Z,40.65
2017-12-04T08:06:23.695Z,48.53
2017-12-04T08:08:51.982Z,45.90
2017-12-04T08:11:20.272Z,48.33
2017-12-04T08:13:47.798Z,41.85
2017-12-04T08:16:15.339Z,43.70
2017-12-04T08:18:42.858Z,40.35
2017-12-04T08:21:10.378Z,38.47
2017-12-04T08:23:37.909Z,38.42
2017-12-04T08:26:05.420Z,34.17
2017-12-04T08:28:32.968Z,35.58
2017-12-04T08:31:01.240Z,36.05
2017-12-04T08:33:29.550Z,34.42
2017-12-04T08:35:57.077Z,33.58
2017-12-04T08:38:25.373Z,33.85
2017-12-04T08:40:52.921Z,34.25
2017-12-04T08:43:20.455Z,34.03
2017-12-04T08:45:47.988Z,35.38
2017-12-04T08:48:15.517Z,29.80
2017-12-04T08:50:43.044Z,30.77
2017-12-04T08:53:11.333Z,26.90
2017-12-04T08:55:38.854Z,28.55
2017-12-04T08:58:06.390Z,26.02
2017-12-04T09:00:33.916Z,27.75
2017-12-04T09:03:01.452Z,24.45
2017-12-04T09:05:29.747Z,24.33
2017-12-04T09:07:57.266Z,26.05
2017-12-04T09:10:24.815Z,27.00
2017-12-04T09:12:52.315Z,25.10
2017-12-04T09:15:20.604Z,25.25
2017-12-04T09:17:48.132Z,27.45
2017-12-04T09:20:16.424Z,25.85
2017-12-04T09:22:44.758Z,23.38
2017-12-04T09:25:12.291Z,24.87
2017-12-04T09:27:39.854Z,26.48
2017-12-04T09:30:07.356Z,24.35
2017-12-04T09:32:34.898Z,22.55
2017-12-04T09:35:02.419Z,25.77
2017-12-04T09:37:29.946Z,21.30
2017-12-04T09:39:58.250Z,21.87
2017-12-04T09:42:25.760Z,23.48
2017-12-04T09:44:53.306Z,22.45
2017-12-04T09:47:20.803Z,19.33
2017-12-04T09:49:49.103Z,20.42
2017-12-04T09:52:16.646Z,21.02
2017-12-04T09:54:44.161Z,19.08
2017-12-04T09:57:11.695Z,18.70
2017-12-04T09:59:39.210Z,18.92
2017-12-04T10:02:07.520Z,18.33
2017-12-04T10:04:35.042Z,17.27
2017-12-04T10:07:03.312Z,17.90
2017-12-04T10:09:31.601Z,17.58
2017-12-04T10:11:59.887Z,17.02
2017-12-04T10:14:27.429Z,16.33
2017-12-04T10:16:55.724Z,17.98
2017-12-04T10:19:23.428Z,16.00
2017-12-04T10:21:50.967Z,15.88
2017-12-04T10:24:18.476Z,15.80
2017-12-04T10:26:46.775Z,15.02
2017-12-04T10:29:14.304Z,12.18
2017-12-04T10:31:42.630Z,14.10
2017-12-04T10:34:10.140Z,11.30
2017-12-04T10:36:38.439Z,10.68
2017-12-04T10:39:05.982Z,9.68
2017-12-04T10:41:34.248Z,8.95
2017-12-04T10:44:01.803Z,8.85
2017-12-04T10:46:29.327Z,7.87
2017-12-04T10:48:56.851Z,7.15
2017-12-04T10:51:24.387Z,5.90
2017-12-04T10:53:52.665Z,6.30
2017-12-04T10:56:20.963Z,6.47
2017-12-04T10:58:48.473Z,6.87
2017-12-04T11:01:15.979Z,6.28
2017-12-04T11:03:43.500Z,6.10
2017-12-04T11:06:11.008Z,6.15
2017-12-04T11:08:38.567Z,7.57
2017-12-04T11:11:06.089Z,6.85
2017-12-04T11:13:34.379Z,8.95
2017-12-04T11:16:01.928Z,9.52
2017-12-04T11:18:30.223Z,11.25
2017-12-04T11:20:57.773Z,11.27
2017-12-04T11:23:25.280Z,11.88
2017-12-04T11:25:52.783Z,11.93
2017-12-04T11:28:21.175Z,12.18
2017-12-04T11:30:48.700Z,13.90
2017-12-04T11:33:16.252Z,10.95
2017-12-04T11:35:43.778Z,12.57
2017-12-04T11:38:11.284Z,11.45
2017-12-04T11:40:39.590Z,11.63
2017-12-04T11:43:07.113Z,9.80
2017-12-04T11:45:34.647Z,10.73
2017-12-04T11:48:02.170Z,9.65
2017-12-04T11:50:29.686Z,9.15
2017-12-04T11:52:57.204Z,8.90
2017-12-04T11:55:24.712Z,7.20
2017-12-04T11:57:53.008Z,6.95
2017-12-04T12:00:20.513Z,8.60
2017-12-04T12:02:48.039Z,7.30
2017-12-04T12:05:15.568Z,7.45
2017-12-04T12:07:43.840Z,7.00
2017-12-04T12:10:12.154Z,6.25
2017-12-04T12:12:39.668Z,6.07
2017-12-04T12:15:07.182Z,5.50
2017-12-04T12:17:34.705Z,6.07
2017-12-04T12:20:02.994Z,5.50
2017-12-04T12:22:31.291Z,6.50
2017-12-04T12:24:58.816Z,5.60
2017-12-04T12:27:27.103Z,4.70
2017-12-04T12:29:55.416Z,5.47
2017-12-04T12:32:22.920Z,5.18
2017-12-04T12:34:50.430Z,5.00
2017-12-04T12:37:17.982Z,5.70
2017-12-04T12:39:45.506Z,6.80
2017-12-04T12:42:13.803Z,8.75
2017-12-04T12:44:42.114Z,9.00
2017-12-04T12:47:09.625Z,8.65
2017-12-04T12:49:37.155Z,9.43
2017-12-04T12:52:04.707Z,11.90
2017-12-04T12:54:32.230Z,8.38
2017-12-04T12:56:59.754Z,7.82
2017-12-04T12:59:27.319Z,7.68
2017-12-04T13:01:54.851Z,8.65
2017-12-04T13:04:22.397Z,8.00
2017-12-04T13:06:49.937Z,8.48
2017-12-04T13:09:17.459Z,8.77
2017-12-04T13:11:44.966Z,7.90
2017-12-04T13:14:12.518Z,8.38
2017-12-04T13:16:40.038Z,6.55
2017-12-04T13:19:07.552Z,6.55
2017-12-04T13:21:35.092Z,8.27
2017-12-04T13:24:02.596Z,8.27
2017-12-04T13:26:30.109Z,7.85
2017-12-04T13:28:57.659Z,8.40
2017-12-04T13:31:25.192Z,8.38
2017-12-04T13:34:04.647Z,7.50
2017-12-04T13:36:44.688Z,7.47
2017-12-04T13:39:12.993Z,9.05
2017-12-04T13:41:40.504Z,7.82
2017-12-04T13:44:08.016Z,8.47
2017-12-04T13:46:35.552Z,8.30
2017-12-04T13:49:03.072Z,8.27
2017-12-04T13:51:30.613Z,8.23
2017-12-04T13:53:58.175Z,9.05
2017-12-04T13:56:25.688Z,8.45
2017-12-04T13:58:53.244Z,7.82
2017-12-04T14:01:21.563Z,7.85
2017-12-04T14:03:49.087Z,7.75
2017-12-04T14:06:16.650Z,8.43
2017-12-04T14:08:44.193Z,7.40
2017-12-04T14:11:12.483Z,7.70
2017-12-04T14:13:40.758Z,7.87
2017-12-04T14:16:09.087Z,8.27
2017-12-04T14:18:36.614Z,8.05
2017-12-04T14:21:04.113Z,7.07
2017-12-04T14:23:31.695Z,6.95
2017-12-04T14:25:59.222Z,7.15
2017-12-04T14:28:26.761Z,6.90
2017-12-04T14:30:54.265Z,7.47
2017-12-04T14:33:21.790Z,7.72
2017-12-04T14:35:49.335Z,5.95
2017-12-04T14:38:16.853Z,6.32
2017-12-04T14:40:45.142Z,5.47
2017-12-04T14:43:13.454Z,5.90
2017-12-04T14:45:41.114Z,5.50
2017-12-04T14:48:08.635Z,4.95
2017-12-04T14:50:36.971Z,4.90
2017-12-04T14:53:04.488Z,4.80
2017-12-04T14:55:32.011Z,4.05
2017-12-04T14:57:59.543Z,4.45
2017-12-04T15:00:27.067Z,4.20
2017-12-04T15:02:54.572Z,4.62
2017-12-04T15:05:22.100Z,4.18
2017-12-04T15:07:49.615Z,4.15
2017-12-04T15:10:17.885Z,4.00
2017-12-04T15:12:46.277Z,4.28
2017-12-04T15:15:14.575Z,3.92
2017-12-04T15:17:42.944Z,4.72
2017-12-04T15:20:11.252Z,5.20
2017-12-04T15:22:38.756Z,4.93
2017-12-04T15:25:06.260Z,5.68
2017-12-04T15:27:33.820Z,25.92
2017-12-04T15:30:01.376Z,8.57
2017-12-04T15:32:28.875Z,6.32
2017-12-04T15:34:56.403Z,9.35
2017-12-04T15:37:24.072Z,7.68
2017-12-04T15:39:51.596Z,15.65
2017-12-04T15:42:19.915Z,10.68
2017-12-04T15:44:47.442Z,8.60
2017-12-04T15:47:15.725Z,31.65
2017-12-04T15:49:44.020Z,8.82
2017-12-04T15:52:11.545Z,10.20
2017-12-04T15:54:39.839Z,8.65
2017-12-04T15:57:08.128Z,9.98
2017-12-04T15:59:35.659Z,11.25
2017-12-04T16:02:03.177Z,10.45
2017-12-04T16:04:30.748Z,11.70
2017-12-04T16:06:58.274Z,12.63
2017-12-04T16:09:25.780Z,30.80
2017-12-04T16:11:53.316Z,15.25
2017-12-04T16:14:20.829Z,10.25
2017-12-04T16:16:49.239Z,10.88
2017-12-04T16:19:16.787Z,9.82
2017-12-04T16:21:44.292Z,10.85
2017-12-04T16:24:11.838Z,11.63
2017-12-04T16:26:39.367Z,14.48
2017-12-04T16:29:06.934Z,12.15
2017-12-04T16:31:34.448Z,11.45
2017-12-04T16:34:01.994Z,12.20
2017-12-04T16:36:29.695Z,10.95
2017-12-04T16:38:57.199Z,10.05
2017-12-04T16:41:24.747Z,10.98
2017-12-04T16:43:52.271Z,9.43
2017-12-04T16:46:19.776Z,7.80
2017-12-04T16:48:47.339Z,6.95
2017-12-04T16:51:14.859Z,6.75
2017-12-04T16:53:42.378Z,7.43
2017-12-04T16:56:09.904Z,7.40
2017-12-04T16:58:37.404Z,7.50
2017-12-04T17:01:05.698Z,14.65
2017-12-04T17:03:33.239Z,9.98
2017-12-04T17:06:00.767Z,8.10
2017-12-04T17:08:28.401Z,8.15
2017-12-04T17:10:55.977Z,8.55
2017-12-04T17:13:23.519Z,8.60
2017-12-04T17:15:51.029Z,9.57
2017-12-04T17:18:18.560Z,8.50
2017-12-04T17:20:46.112Z,8.95
2017-12-04T17:23:13.631Z,8.27
2017-12-04T17:25:42.047Z,8.95
2017-12-04T17:28:09.605Z,8.48
2017-12-04T17:30:37.136Z,8.57
2017-12-04T17:33:05.419Z,8.52
2017-12-04T17:35:32.936Z,7.68
2017-12-04T17:38:01.220Z,8.10
2017-12-04T17:40:28.721Z,8.13
2017-12-04T17:42:56.315Z,9.02
2017-12-04T17:45:23.839Z,9.45
2017-12-04T17:47:51.371Z,8.93
2017-12-04T17:50:19.656Z,7.85
2017-12-04T17:52:48.687Z,9.35
2017-12-04T17:55:16.220Z,10.13
2017-12-04T17:57:43.763Z,9.50
2017-12-04T18:03:01.647Z,11.95
2017-12-04T18:05:29.143Z,11.15
2017-12-04T18:07:56.656Z,11.32
2017-12-04T18:10:24.175Z,11.35
2017-12-04T18:12:51.674Z,12.65
2017-12-04T18:15:19.195Z,13.77
2017-12-04T18:17:46.724Z,13.35
2017-12-04T18:20:14.273Z,13.18
2017-12-04T18:22:41.794Z,13.98
2017-12-04T18:25:10.078Z,13.35
2017-12-04T18:27:38.376Z,13.30
2017-12-04T18:30:05.875Z,14.90
2017-12-04T18:32:33.398Z,14.52
2017-12-04T18:35:00.937Z,16.12
2017-12-04T18:37:29.221Z,14.20
2017-12-04T18:39:57.501Z,13.45
2017-12-04T18:42:25.814Z,15.77
2017-12-04T18:44:53.320Z,14.13
2017-12-04T18:47:21.603Z,15.18
2017-12-04T18:49:49.896Z,14.82
2017-12-04T18:52:17.408Z,14.35
2017-12-04T18:54:44.927Z,15.45
2017-12-04T18:57:12.465Z,16.80
2017-12-04T18:59:40.750Z,16.12
2017-12-04T19:02:09.041Z,16.52
2017-12-04T19:04:36.558Z,16.48
2017-12-04T19:07:04.060Z,17.85
2017-12-04T19:09:31.652Z,17.37
2017-12-04T19:11:59.166Z,16.40
2017-12-04T19:14:26.686Z,19.48
2017-12-04T19:16:54.218Z,19.37
2017-12-04T19:19:21.723Z,16.55
2017-12-04T19:21:49.991Z,18.12
2017-12-04T19:24:17.513Z,19.02
2017-12-04T19:26:45.035Z,18.48
2017-12-04T19:29:12.549Z,17.00
2017-12-04T19:31:40.068Z,18.87
2017-12-04T19:34:07.571Z,19.42
2017-12-04T19:36:35.111Z,16.87
2017-12-04T19:39:02.634Z,17.92
2017-12-04T19:41:30.182Z,20.27
2017-12-04T19:43:57.705Z,18.40
2017-12-04T19:46:25.227Z,17.50
2017-12-04T19:48:52.774Z,16.27
2017-12-04T19:51:20.352Z,16.70
2017-12-04T19:53:47.870Z,19.75
2017-12-04T19:56:16.163Z,18.45
2017-12-04T19:58:44.447Z,17.77
2017-12-04T20:01:11.971Z,18.23
2017-12-04T20:03:40.287Z,18.30
2017-12-04T20:06:07.866Z,20.10
2017-12-04T20:08:35.411Z,19.20
2017-12-04T20:11:02.911Z,18.77
2017-12-04T20:13:30.421Z,21.20
2017-12-04T20:15:57.956Z,23.00
2017-12-04T20:18:26.246Z,20.15
2017-12-04T20:20:54.515Z,21.92
2017-12-04T20:23:22.823Z,20.40
2017-12-04T20:25:50.342Z,21.80
2017-12-04T20:28:19.619Z,23.60
2017-12-04T20:30:47.144Z,21.15
2017-12-04T20:33:14.643Z,21.67
2017-12-04T20:35:42.166Z,24.20
2017-12-04T20:38:09.714Z,21.83
2017-12-04T20:40:37.230Z,21.95
2017-12-04T20:43:04.750Z,20.15
2017-12-04T20:45:32.292Z,20.67
2017-12-04T20:47:59.792Z,22.55
2017-12-04T20:50:27.319Z,21.55
2017-12-04T20:52:54.819Z,21.50
2017-12-04T20:55:22.378Z,21.75
2017-12-04T20:57:49.895Z,20.15
2017-12-04T21:00:17.666Z,21.02
2017-12-04T21:02:45.191Z,23.62
2017-12-04T21:05:13.800Z,23.08
2017-12-04T21:07:50.297Z,24.92
2017-12-04T21:10:29.736Z,21.48
2017-12-04T21:13:09.243Z,20.40
2017-12-04T21:15:46.187Z,21.90
2017-12-04T21:18:14.494Z,20.42
2017-12-04T21:20:42.012Z,20.08
2017-12-04T21:23:09.516Z,20.40
2017-12-04T21:25:37.053Z,19.85
2017-12-04T21:28:05.334Z,19.08
2017-12-04T21:30:32.858Z,20.20
2017-12-04T21:33:00.383Z,20.60
2017-12-04T21:35:27.894Z,21.10
2017-12-04T21:37:56.191Z,22.20
2017-12-04T21:40:23.731Z,21.90
2017-12-04T21:42:52.014Z,21.70
2017-12-04T21:45:20.293Z,20.25
2017-12-04T21:47:47.839Z,20.58
2017-12-04T21:50:16.112Z,20.65
2017-12-04T21:52:44.379Z,19.85
2017-12-04T21:55:11.933Z,18.73
2017-12-04T21:57:40.222Z,18.45
2017-12-04T22:00:08.494Z,19.35
2017-12-04T22:02:36.832Z,20.30
2017-12-04T22:05:04.349Z,18.12
2017-12-04T22:07:32.606Z,19.80
2017-12-04T22:10:00.925Z,21.65
2017-12-04T22:12:28.423Z,18.83
2017-12-04T22:14:55.943Z,18.27
2017-12-04T22:17:23.475Z,19.17
2017-12-04T22:19:51.766Z,18.65
2017-12-04T22:22:19.268Z,17.48
2017-12-04T22:24:46.812Z,18.87
2017-12-04T22:27:14.316Z,19.55
2017-12-04T22:29:41.834Z,18.83
2017-12-04T22:32:09.355Z,19.17
2017-12-04T22:34:37.642Z,19.23
2017-12-04T22:37:05.186Z,19.83
2017-12-04T22:39:33.465Z,19.05
2017-12-04T22:42:01.774Z,20.35
2017-12-04T22:44:29.333Z,23.05
2017-12-04T22:46:56.865Z,21.08
2017-12-04T22:49:25.149Z,21.02
2017-12-04T22:51:52.695Z,23.20
2017-12-04T22:54:20.990Z,22.02
2017-12-04T22:56:48.487Z,26.48
2017-12-04T22:59:16.015Z,18.62
2017-12-04T23:01:43.538Z,25.75
2017-12-04T23:04:11.803Z,26.98
2017-12-04T23:06:39.358Z,25.80
2017-12-04T23:09:06.855Z,25.77
2017-12-04T23:11:34.368Z,26.85
2017-12-04T23:14:01.922Z,26.98
2017-12-04T23:16:29.442Z,24.30
2017-12-04T23:18:56.943Z,22.52
2017-12-04T23:21:24.464Z,23.45
2017-12-04T23:23:51.972Z,23.58
2017-12-04T23:26:19.522Z,23.67
2017-12-04T23:28:47.018Z,22.52
2017-12-04T23:31:14.541Z,26.25
2017-12-04T23:33:42.089Z,21.37
2017-12-04T23:36:09.591Z,26.23
2017-12-04T23:38:37.871Z,24.37
2017-12-04T23:41:05.407Z,22.95
2017-12-04T23:43:32.934Z,25.05
2017-12-04T23:46:00.435Z,25.70
2017-12-04T23:48:28.741Z,29.48
2017-12-04T23:50:56.253Z,27.83
2017-12-04T23:53:23.783Z,25.90
2017-12-04T23:55:51.284Z,26.15
2017-12-04T23:58:19.580Z,27.00
